ADDS METAR Data INFO
IDs: Format: Raw Decoded Include TAF

Data at: 0350 UTC 18 Oct 2017

KAUG 180253Z AUTO 21007KT 10SM OVC100 08/01 A3015 RMK AO2 SLP212 T00780006 50000
KAUG 180153Z AUTO 19005KT 10SM BKN095 07/02 A3015 RMK AO2 SLP213 T00720017
KAUG 180053Z AUTO 20005KT 10SM CLR 07/03 A3015 RMK AO2 SLP213 T00670028
KAUG 172353Z AUTO 19004KT 10SM CLR 08/02 A3015 RMK AO2 SLP213 T00780022 10122 20078 56002
KAUG 172253Z AUTO VRB06KT 10SM CLR 08/01 A3015 RMK AO2 SLP214 T00830011
KAUG 172153Z AUTO 20004KT 10SM CLR 10/M01 A3015 RMK AO2 SLP214 T01001011
KAUG 172053Z AUTO 21005KT 10SM CLR 12/M02 A3015 RMK AO2 SLP214 T01171017 56009
KAUG 171953Z AUTO 20005KT 10SM CLR 12/M02 A3016 RMK AO2 SLP216 T01171017
KAUG 171853Z AUTO 28006KT 10SM CLR 12/M02 A3017 RMK AO2 SLP219 T01171017
KAUG 171753Z AUTO 10SM CLR 11/M02 A3018 RMK AO2 SLP223 T01111017 10111 20028 58021
KAUG 171653Z AUTO 34005KT 10SM CLR 09/M02 A3020 RMK AO2 SLP230 T00941022
KAUG 171553Z AUTO 30006KT 10SM CLR 09/M03 A3024 RMK AO2 SLP243 T00891028
KAUG 171453Z AUTO VRB05KT 10SM CLR 08/M02 A3024 RMK AO2 SLP244 T00781017 58001
KAUG 171353Z AUTO 33007KT 10SM CLR 07/M01 A3025 RMK AO2 SLP245 T00721011
KAUG 171253Z AUTO 30006KT 10SM CLR 05/M01 A3026 RMK AO2 SLP249 T00501006
KAUG 171153Z AUTO 29004KT 10SM CLR 03/M02 A3025 RMK AO2 SLP246 T00281017 10028 20006 53017
KAUG 171053Z AUTO 29004KT 10SM CLR 01/M03 A3023 RMK AO2 SLP240 T00111033
KAUG 170953Z AUTO 31004KT 10SM CLR 01/M03 A3021 RMK AO2 SLP233 T00111033
KAUG 170853Z AUTO 30006KT 10SM CLR 01/M03 A3020 RMK AO2 SLP229 T00111033 53016
KAUG 170753Z AUTO 32005KT 10SM CLR 02/M03 A3017 RMK AO2 SLP218 T00171033
KAUG 170653Z AUTO 33005KT 10SM CLR 02/M03 A3016 RMK AO2 SLP216 T00171028
KAUG 170553Z AUTO 32009KT 10SM CLR 03/M03 A3015 RMK AO2 SLP212 T00281028 10072 20022 53009
KAUG 170453Z AUTO 32007KT 10SM FEW075 03/M02 A3014 RMK AO2 SLP207 T00331022 402000033
KAUG 170353Z AUTO 31008KT 10SM SCT080 04/M03 A3013 RMK AO2 SLP205 T00391028
KAUG 170253Z AUTO 32006KT 10SM CLR 04/M02 A3012 RMK AO2 SLP203 T00441017 51019
KAUG 170153Z AUTO 34010KT 10SM FEW039 06/M01 A3011 RMK AO2 SLP199 T00561011
KAUG 170053Z AUTO 34012KT 10SM OVC036 07/M01 A3009 RMK AO2 SLP192 T00721011
KAUG 162353Z AUTO 33009KT 10SM OVC038 07/01 A3007 RMK AO2 SLP183 T00720006 10133 20072 51032
KAUG 162253Z AUTO 33008KT 10SM OVC036 08/01 A3005 RMK AO2 SLP177 T00780006
KAUG 162153Z AUTO 33011KT 10SM CLR 09/01 A3001 RMK AO2 SLP164 T00890006
KAUG 162053Z AUTO 32013KT 10SM FEW044 10/01 A2997 RMK AO2 SLP149 T01000011 53014
KAUG 161953Z AUTO 32008KT 10SM OVC048 12/02 A2994 RMK AO2 SLP140 T01220022
KAUG 161853Z AUTO 01007KT 10SM CLR 13/02 A2992 RMK AO2 SLP132 T01280022
KAUG 161753Z AUTO 33007KT 10SM CLR 12/02 A2993 RMK AO2 SLP134 T01220017 10133 20100 51010
KAUG 161653Z AUTO 35009KT 10SM CLR 11/02 A2992 RMK AO2 SLP131 T01110017
KAUG 161553Z AUTO 33016KT 10SM CLR 11/02 A2992 RMK AO2 SLP132 T01110017